Skip Navigation LinksHome page > Weather > Current weather Skip Navigation Links

Current Weather

Stewart Int'L, Newburgh, N.Y.

For information only: do not use for flight planning or navigation.
Latest weather
Observation time Saturday, July 11, 2020 11:45 PM EDT
Local time Saturday, July 11, 2020 11:59 PM EDT
Flight conditions Visual Meteorological Conditions
Winds
Wind direction West-Southwest (250°)
Wind speed 9 mph
Visibility 10 mi.
Sky condition
Ceiling unlimited
Sky clear
Temperature 72°F
Dewpoint 72°F
Altimeter 29.66 in.Hg
Derived measurements
Relative humidity 100%
Density altitude 1963 ft.
METAR KSWF 120345Z 25008KT 10SM SKC 22/22 A2966

Settings

Location code

InnerDrive.Weather 4.0.6770.0 Release CLR 4.0.30319.42000
Copyright ©2018 Inner Drive Technology. All rights reserved. Portions Copyright ©1986-2018 David Braverman.

Find weather

Site navigation


Skip Navigation Links

Place info

Page info

PayPal - The safer, easier way to pay online!

Return home.

Copyright ©2020 Inner Drive Technology. Purveyors of fine, hand-crafted computer software. Page printed 2020-07-12T03:59:46 UTC.